Fremont, MI

5:26 AM EDT on August 24, 2017 (GMT -0400)
Fremont

Weather History for KFFX - December, 2012

Change the Weather History Date:

Thursday, December 20, 2012

  Actual Average (KMKG) Record (KMKG)
Temperature  
Mean Temperature 36 °F -  
Max Temperature 41 °F 32 °F 52 °F (1949)
Min Temperature 32 °F 21 °F -8 °F (1983)
Degree Days  
Heating Degree Days 28    
Moisture  
Dew Point 35 °F    
Average Humidity 95    
Maximum Humidity 99    
Minimum Humidity 85    
Precipitation  
Precipitation 0.00 in - - ()
Sea Level Pressure  
Sea Level Pressure 29.42 in    
Wind  
Wind Speed 12 mph (ENE)    
Max Wind Speed 22 mph    
Max Gust Speed 37 mph    
Visibility 6 miles    
Events Rain , Snow    
Averages and records for this station are not official NWS values.
T = Trace of Precipitation, MM = Missing Value Source: NWS Daily Summary

Daily Weather History Graph

Daily Weather History Graph

Search for Another Location

Airport or City:

Trip Planner

Search our weather history database for the weather conditions in past years. The results will help you decide how hot, cold, wet, or windy it might be!

Date:

Astronomy

Dec. 20, 2012 Rise Set
Actual Time 8:13 AM EST 5:10 PM EST
Civil Twilight 7:40 AM EST 5:43 PM EST
Nautical Twilight 7:04 AM EST 6:19 PM EST
Astronomical Twilight 6:29 AM EST 6:54 PM EST
Moon 12:36 PM EST (12/20) 12:50 AM EST (12/20)
Length of Visible Light 10h 02m
Length of Day
8h 57m
First Quarter, 55% of the Moon is Illuminated
Dec 20
First Quarter
Dec 28
Full
Jan 4
Last Quarter
Jan 11
New
Jan 18
First Quarter

Hourly Weather History & Observations

Time (EST) Temp. Windchill Dew Point Humidity Pressure Visibility Wind Dir Wind Speed Gust Speed Precip Events Conditions
12:14 AM 35.1 °F 28.6 °F 32.0 °F 89% 29.99 in 7.0 mi ENE 8.1 mph - N/A   Overcast
12:34 AM 35.6 °F 28.0 °F 32.0 °F 87% 29.97 in 7.0 mi ENE 10.4 mph - N/A   Overcast
12:54 AM 35.6 °F 27.5 °F 32.2 °F 87% 29.96 in 7.0 mi ENE 11.5 mph - N/A   Overcast
1:14 AM 35.4 °F 29.0 °F 32.4 °F 89% 29.94 in 7.0 mi ENE 8.1 mph - N/A   Overcast
1:34 AM 35.6 °F 29.2 °F 32.2 °F 87% 29.96 in 7.0 mi East 8.1 mph - N/A   Overcast
2:14 AM 35.1 °F 29.3 °F 32.5 °F 91% 29.93 in 5.0 mi ENE 6.9 mph - N/A Rain Light Rain
2:33 AM 34.0 °F 26.0 °F 32.7 °F 95% 29.92 in 4.0 mi ENE 10.4 mph - N/A Snow Light Snow
2:54 AM 33.3 °F 25.1 °F 32.5 °F 97% 29.90 in 1.8 mi ENE 10.4 mph - N/A Snow Light Snow
3:14 AM 32.7 °F 25.0 °F 32.2 °F 98% 29.89 in 0.8 mi ENE 9.2 mph 17.3 mph N/A Snow Snow
3:34 AM 32.9 °F 24.1 °F 32.5 °F 99% 29.88 in 2.0 mi ENE 11.5 mph 18.4 mph N/A Snow Light Snow
3:54 AM 32.9 °F 23.2 °F 32.4 °F 98% 29.85 in 2.0 mi ENE 13.8 mph 20.7 mph N/A Snow Light Snow
4:14 AM 32.9 °F 22.4 °F 32.5 °F 99% 29.83 in 2.5 mi ENE 16.1 mph 24.2 mph N/A Snow Light Snow
4:35 AM 32.9 °F 24.1 °F 32.4 °F 98% 29.82 in 1.2 mi East 11.5 mph 16.1 mph N/A Snow Light Snow
4:54 AM 32.5 °F 24.2 °F 32.4 °F 99% 29.80 in 2.0 mi ENE 10.4 mph 16.1 mph N/A Snow Light Snow
5:14 AM 32.9 °F 24.1 °F 32.4 °F 98% 29.80 in 1.0 mi ENE 11.5 mph - N/A Snow Snow
5:34 AM 32.9 °F 23.2 °F 32.5 °F 99% 29.77 in 1.5 mi ENE 13.8 mph 19.6 mph N/A Snow Light Snow
5:54 AM 32.7 °F 22.5 °F 32.5 °F 99% 29.75 in 1.2 mi ENE 15.0 mph 21.9 mph N/A Snow Light Snow
6:14 AM 33.1 °F 23.4 °F 32.9 °F 99% 29.71 in 2.0 mi East 13.8 mph 28.8 mph N/A Snow Light Snow
6:34 AM 33.1 °F 23.0 °F 32.9 °F 99% 29.70 in 1.5 mi ENE 15.0 mph 23.0 mph N/A Snow Light Snow
6:54 AM 33.8 °F 22.2 °F 33.1 °F 97% 29.66 in 4.0 mi East 20.7 mph 29.9 mph N/A Snow Light Snow
7:14 AM 34.0 °F 22.1 °F 33.1 °F 96% 29.62 in 4.0 mi ENE 21.9 mph 33.4 mph N/A Snow Snow
7:35 AM 34.2 °F 23.3 °F 33.3 °F 97% 29.59 in 4.0 mi East 18.4 mph 33.4 mph N/A Rain Light Rain
7:54 AM 34.3 °F 23.2 °F 33.3 °F 96% 29.57 in 5.0 mi ENE 19.6 mph 31.1 mph N/A Snow Light Snow
8:14 AM 34.7 °F 23.7 °F 33.4 °F 95% 29.54 in 5.0 mi ENE 19.6 mph 34.5 mph N/A Snow Light Snow
8:34 AM 34.7 °F 24.0 °F 33.4 °F 95% 29.53 in 5.0 mi East 18.4 mph 36.8 mph N/A Rain Light Rain
8:54 AM 34.7 °F 24.7 °F 33.4 °F 95% 29.51 in 3.0 mi ENE 16.1 mph 31.1 mph N/A Rain Light Rain
9:15 AM 34.7 °F 23.7 °F 33.4 °F 95% 29.48 in 4.0 mi ENE 19.6 mph 36.8 mph N/A Rain Light Rain
9:34 AM 34.7 °F 24.3 °F 33.8 °F 97% 29.49 in 5.0 mi East 17.3 mph 27.6 mph N/A Rain Light Rain
9:55 AM 35.1 °F 25.5 °F 33.8 °F 95% 29.49 in 3.0 mi East 15.0 mph 27.6 mph N/A Rain Rain
10:14 AM 35.2 °F 23.8 °F 34.0 °F 95% 29.48 in 3.0 mi East 21.9 mph 28.8 mph N/A Rain Light Rain
10:35 AM 35.2 °F 25.4 °F 33.8 °F 94% 29.46 in 5.0 mi East 16.1 mph 25.3 mph N/A Snow Light Snow
10:54 AM 35.2 °F 24.7 °F 33.8 °F 94% 29.44 in 5.0 mi ENE 18.4 mph 28.8 mph N/A Rain Light Rain
11:14 AM 35.2 °F 24.7 °F 34.0 °F 95% 29.40 in 5.0 mi ENE 18.4 mph 27.6 mph N/A Rain Light Rain
11:34 AM 35.2 °F 24.4 °F 33.8 °F 94% 29.36 in 7.0 mi East 19.6 mph 31.1 mph N/A Rain Light Rain
11:54 AM 35.6 °F 26.2 °F 34.0 °F 94% 29.36 in 10.0 mi East 15.0 mph 28.8 mph N/A   Overcast
12:15 PM 35.6 °F 26.6 °F 34.2 °F 94% 29.35 in 10.0 mi East 13.8 mph 24.2 mph N/A   Overcast
12:34 PM 35.8 °F 27.8 °F 34.5 °F 95% 29.35 in 10.0 mi East 11.5 mph 19.6 mph N/A   Overcast
12:54 PM 36.0 °F 26.7 °F 34.7 °F 95% 29.30 in 7.0 mi ENE 15.0 mph 21.9 mph N/A   Drizzle
1:14 PM 36.1 °F 26.5 °F 35.1 °F 96% 29.25 in 7.0 mi ENE 16.1 mph 24.2 mph N/A   Overcast
1:34 PM 36.5 °F 27.8 °F 35.4 °F 96% 29.25 in 7.0 mi ENE 13.8 mph 18.4 mph N/A Rain Light Rain
1:54 PM 36.7 °F 29.9 °F 35.8 °F 97% 29.23 in 7.0 mi ENE 9.2 mph 18.4 mph N/A Rain Light Rain
2:14 PM 36.9 °F 28.7 °F 36.1 °F 97% 29.21 in 5.0 mi ENE 12.7 mph 18.4 mph N/A Rain Light Rain
2:34 PM 37.0 °F 28.9 °F 36.5 °F 98% 29.20 in 7.0 mi ENE 12.7 mph 19.6 mph N/A   Overcast
2:54 PM 37.2 °F 29.1 °F 36.5 °F 97% 29.18 in 4.0 mi ENE 12.7 mph 19.6 mph N/A Rain Light Rain
3:14 PM 37.4 °F 28.5 °F 36.7 °F 97% 29.16 in 4.0 mi ENE 15.0 mph 20.7 mph N/A Rain Light Rain
3:35 PM 37.4 °F 28.9 °F 36.9 °F 98% 29.14 in 3.0 mi ENE 13.8 mph 19.6 mph N/A Rain Rain
3:54 PM 37.6 °F 28.8 °F 37.0 °F 98% 29.13 in 1.8 mi ENE 15.0 mph 18.4 mph N/A Rain Light Rain
4:14 PM 37.8 °F 29.4 °F 37.4 °F 99% 29.12 in 1.0 mi ENE 13.8 mph 21.9 mph N/A Rain Light Rain
4:34 PM 38.1 °F 30.7 °F 37.8 °F 99% 29.11 in 4.0 mi ENE 11.5 mph - N/A Rain Light Rain
4:54 PM 38.5 °F 30.3 °F 37.9 °F 98% 29.09 in 10.0 mi NE 13.8 mph 19.6 mph N/A   Overcast
5:14 PM 38.8 °F 30.8 °F 38.3 °F 98% 29.09 in 10.0 mi ENE 13.8 mph - N/A Rain Light Rain
5:34 PM 39.2 °F 31.2 °F 38.7 °F 98% 29.08 in 10.0 mi ENE 13.8 mph 17.3 mph N/A   Overcast
5:55 PM 39.6 °F 33.5 °F 39.2 °F 99% 29.08 in 4.0 mi East 9.2 mph - N/A Rain Rain
6:14 PM 39.7 °F 35.6 °F 39.2 °F 98% 29.10 in 5.0 mi East 5.8 mph - N/A Rain Light Rain
6:34 PM 39.9 °F 35.8 °F 39.4 °F 98% 29.10 in 4.0 mi East 5.8 mph - N/A Rain Light Rain
6:54 PM 39.4 °F 34.5 °F 39.2 °F 99% 29.09 in 7.0 mi NE 6.9 mph - N/A Rain Light Rain
7:14 PM 39.6 °F 34.0 °F 39.2 °F 99% 29.09 in 10.0 mi NE 8.1 mph - N/A   Overcast
7:34 PM 39.6 °F 35.4 °F 39.2 °F 99% 29.09 in 7.0 mi ENE 5.8 mph - N/A   Drizzle
7:54 PM 40.1 °F 38.0 °F 39.7 °F 99% 29.10 in 10.0 mi East 3.5 mph - N/A   Light Drizzle
8:14 PM 40.1 °F 38.0 °F 39.4 °F 97% 29.09 in 7.0 mi SE 3.5 mph - N/A   Drizzle
8:34 PM 41.9 °F 37.5 °F 38.8 °F 89% 29.10 in 10.0 mi South 6.9 mph - N/A   Overcast
9:14 PM 40.3 °F 35.5 °F 36.1 °F 85% 29.10 in 10.0 mi SSE 6.9 mph - N/A   Overcast
9:34 PM 39.9 °F 37.8 °F 35.8 °F 85% 29.10 in 10.0 mi ESE 3.5 mph - N/A   Overcast
9:54 PM 39.7 °F 37.6 °F 35.6 °F 85% 29.11 in 10.0 mi ESE 3.5 mph - N/A   Overcast
10:14 PM 39.2 °F - 35.6 °F 87% 29.11 in 10.0 mi Calm Calm - N/A   Overcast
10:35 PM 38.5 °F 36.1 °F 36.1 °F 91% 29.12 in 10.0 mi North 3.5 mph - N/A   Overcast
10:54 PM 38.7 °F - 36.0 °F 90% 29.13 in 10.0 mi Calm Calm - N/A   Overcast
11:14 PM 37.6 °F 31.0 °F 36.7 °F 97% 29.14 in 7.0 mi NNW 9.2 mph - N/A   Overcast
11:34 PM 35.8 °F 26.9 °F 35.2 °F 98% 29.15 in 3.0 mi NW 13.8 mph 19.6 mph N/A   Overcast
11:54 PM 32.9 °F 24.1 °F 32.2 °F 97% 29.16 in 2.5 mi NW 11.5 mph - N/A Snow Light Snow